createdAt,value
2019-02-23T00:00:27.591Z,-4.90
2019-02-23T00:04:34.207Z,-4.80
2019-02-23T00:08:39.220Z,-4.90
2019-02-23T00:12:44.351Z,-5.00
2019-02-23T00:16:49.362Z,-5.10
2019-02-23T00:20:54.360Z,-5.10
2019-02-23T00:24:59.381Z,-4.90
2019-02-23T00:29:04.393Z,-4.80
2019-02-23T00:33:09.402Z,-4.90
2019-02-23T00:37:14.415Z,-5.10
2019-02-23T00:41:19.407Z,-5.10
2019-02-23T00:45:24.423Z,-5.00
2019-02-23T00:49:36.183Z,-4.90
2019-02-23T00:53:36.071Z,-4.90
2019-02-23T00:57:41.187Z,-4.90
2019-02-23T01:01:46.178Z,-4.90
2019-02-23T01:05:51.188Z,-4.80
2019-02-23T01:09:56.202Z,-4.80
2019-02-23T01:14:01.218Z,-4.90
2019-02-23T01:18:06.366Z,-4.90
2019-02-23T01:22:11.457Z,-4.80
2019-02-23T01:26:16.463Z,-4.70
2019-02-23T01:30:21.640Z,-4.70
2019-02-23T01:34:26.684Z,-4.70
2019-02-23T01:38:31.729Z,-4.80
2019-02-23T01:42:36.769Z,-4.80
2019-02-23T01:46:41.755Z,-4.90
2019-02-23T01:50:46.768Z,-4.90
2019-02-23T01:54:51.781Z,-4.90
2019-02-23T01:58:56.790Z,-4.90
2019-02-23T02:03:01.811Z,-4.90
2019-02-23T02:07:07.014Z,-4.80
2019-02-23T02:11:13.403Z,-4.60
2019-02-23T02:15:18.687Z,-4.50
2019-02-23T02:19:23.726Z,-4.30
2019-02-23T02:23:28.735Z,-4.30
2019-02-23T02:27:33.776Z,-4.10
2019-02-23T02:31:38.792Z,-4.00
2019-02-23T02:35:43.803Z,-4.00
2019-02-23T02:39:48.811Z,-4.00
2019-02-23T02:43:53.829Z,-4.00
2019-02-23T02:47:58.836Z,-4.10
2019-02-23T02:52:03.825Z,-4.10
2019-02-23T02:56:08.835Z,-4.20
2019-02-23T03:00:14.268Z,-4.10
2019-02-23T03:04:19.344Z,-4.00
2019-02-23T03:08:24.361Z,-4.00
2019-02-23T03:12:29.367Z,-4.00
2019-02-23T03:16:34.374Z,-4.00
2019-02-23T03:20:39.391Z,-4.00
2019-02-23T03:24:44.403Z,-4.00
2019-02-23T03:28:49.421Z,-4.00
2019-02-23T03:32:54.414Z,-4.00
2019-02-23T03:36:59.440Z,-4.00
2019-02-23T03:41:05.843Z,-4.00
2019-02-23T03:45:10.859Z,-3.90
2019-02-23T03:49:15.874Z,-3.80
2019-02-23T03:53:21.923Z,-3.80
2019-02-23T03:57:26.983Z,-3.80
2019-02-23T04:01:32.968Z,-3.80
2019-02-23T04:05:37.979Z,-3.70
2019-02-23T04:09:42.999Z,-3.60
2019-02-23T04:13:48.043Z,-3.60
2019-02-23T04:17:53.090Z,-3.70
2019-02-23T04:21:58.111Z,-3.80
2019-02-23T04:26:03.115Z,-3.90
2019-02-23T04:30:09.096Z,-3.90
2019-02-23T04:34:14.115Z,-3.90
2019-02-23T04:38:19.107Z,-3.90
2019-02-23T04:42:24.129Z,-3.90
2019-02-23T04:46:29.223Z,-3.90
2019-02-23T04:50:34.237Z,-3.90
2019-02-23T04:54:40.315Z,-3.90
2019-02-23T04:58:45.315Z,-3.90
2019-02-23T05:02:50.317Z,-3.90
2019-02-23T05:06:55.316Z,-3.90
2019-02-23T05:11:00.331Z,-3.80
2019-02-23T05:15:07.684Z,-3.80
2019-02-23T05:19:12.696Z,-3.90
2019-02-23T05:23:17.776Z,-3.90
2019-02-23T05:27:22.787Z,-4.00
2019-02-23T05:31:27.801Z,-4.20
2019-02-23T05:35:32.814Z,-4.30
2019-02-23T05:39:37.819Z,-4.30
2019-02-23T05:43:42.811Z,-4.10
2019-02-23T05:47:47.871Z,-4.20
2019-02-23T05:51:52.891Z,-4.30
2019-02-23T05:55:57.899Z,-4.40
2019-02-23T06:00:02.909Z,-4.40
2019-02-23T06:04:07.908Z,-4.30
2019-02-23T06:08:13.290Z,-4.20
2019-02-23T06:12:18.667Z,-4.20
2019-02-23T06:16:23.695Z,-4.10
2019-02-23T06:20:28.716Z,-4.00
2019-02-23T06:24:33.736Z,-3.90
2019-02-23T06:28:38.799Z,-3.80
2019-02-23T06:32:43.811Z,-3.60
2019-02-23T06:36:48.888Z,-3.40
2019-02-23T06:40:53.896Z,-3.20
2019-02-23T06:44:58.904Z,-2.90
2019-02-23T06:49:03.901Z,-2.00
2019-02-23T06:53:08.898Z,-1.40
2019-02-23T06:57:15.064Z,-0.40
2019-02-23T07:01:20.063Z,0.50
2019-02-23T07:05:25.140Z,0.70
2019-02-23T07:09:30.113Z,1.00
2019-02-23T07:13:35.111Z,1.30
2019-02-23T07:17:40.116Z,0.90
2019-02-23T07:21:45.683Z,1.30
2019-02-23T07:25:50.736Z,2.30
2019-02-23T07:29:57.356Z,3.10
2019-02-23T07:34:02.366Z,3.80
2019-02-23T07:38:07.371Z,4.50
2019-02-23T07:42:12.359Z,5.70
2019-02-23T07:46:17.639Z,6.90
2019-02-23T07:50:22.915Z,7.60
2019-02-23T07:54:28.166Z,8.40
2019-02-23T07:58:33.520Z,8.20
2019-02-23T08:02:38.869Z,8.30
2019-02-23T08:06:44.175Z,8.60
2019-02-23T08:10:49.453Z,9.10
2019-02-23T08:14:54.943Z,8.60
2019-02-23T08:19:00.244Z,8.30
2019-02-23T08:23:05.523Z,9.60
2019-02-23T08:27:11.079Z,9.80
2019-02-23T08:31:17.331Z,11.50
2019-02-23T08:35:22.599Z,13.60
2019-02-23T08:39:27.888Z,13.90
2019-02-23T08:43:33.170Z,13.20
2019-02-23T08:47:38.554Z,14.40
2019-02-23T08:51:43.835Z,13.70
2019-02-23T08:55:49.136Z,12.20
2019-02-23T08:59:54.407Z,11.90
2019-02-23T09:03:59.755Z,13.40
2019-02-23T09:08:05.218Z,14.70
2019-02-23T09:12:10.492Z,16.50
2019-02-23T09:16:16.095Z,18.20
2019-02-23T09:20:29.258Z,18.00
2019-02-23T09:24:29.295Z,17.60
2019-02-23T09:28:34.699Z,17.20
2019-02-23T09:32:39.977Z,17.10
2019-02-23T09:36:46.270Z,18.30
2019-02-23T09:40:51.800Z,19.30
2019-02-23T09:44:57.845Z,18.30
2019-02-23T09:49:03.586Z,18.70
2019-02-23T09:53:11.532Z,18.00
2019-02-23T09:57:15.972Z,18.40
2019-02-23T10:01:21.260Z,18.80
2019-02-23T10:05:26.608Z,19.10
2019-02-23T10:09:34.106Z,19.10
2019-02-23T10:13:41.275Z,17.80
2019-02-23T10:17:47.641Z,18.30
2019-02-23T10:21:54.109Z,17.40
2019-02-23T10:25:59.521Z,16.70
2019-02-23T10:30:08.356Z,16.60
2019-02-23T10:34:13.646Z,17.40
2019-02-23T10:38:18.930Z,18.40
2019-02-23T10:42:24.233Z,18.10
2019-02-23T10:46:29.515Z,17.90
2019-02-23T10:50:34.851Z,17.90
2019-02-23T10:54:40.313Z,16.50
2019-02-23T10:58:45.663Z,15.50
2019-02-23T11:02:51.133Z,16.40
2019-02-23T11:06:56.412Z,17.60
2019-02-23T11:11:01.919Z,16.00
2019-02-23T11:15:12.571Z,15.00
2019-02-23T11:19:17.944Z,16.20
2019-02-23T11:23:23.323Z,16.60
2019-02-23T11:27:29.671Z,17.10
2019-02-23T11:31:34.939Z,16.10
2019-02-23T11:35:40.232Z,15.10
2019-02-23T11:39:45.558Z,15.00
2019-02-23T11:43:50.861Z,14.10
2019-02-23T11:47:56.150Z,14.10
2019-02-23T11:52:01.464Z,13.50
2019-02-23T11:56:06.755Z,13.40
2019-02-23T12:00:14.155Z,13.70
2019-02-23T12:04:19.443Z,13.30
2019-02-23T12:08:25.347Z,12.20
2019-02-23T12:12:30.808Z,12.50
2019-02-23T12:16:36.079Z,11.50
2019-02-23T12:20:41.361Z,9.70
2019-02-23T12:24:46.653Z,9.70
2019-02-23T12:28:51.959Z,9.00
2019-02-23T12:32:57.235Z,8.10
2019-02-23T12:37:02.529Z,7.50
2019-02-23T12:41:07.804Z,7.50
2019-02-23T12:45:13.971Z,7.30
2019-02-23T12:49:19.255Z,7.40
2019-02-23T12:53:24.531Z,7.30
2019-02-23T12:57:29.791Z,7.00
2019-02-23T13:01:35.099Z,6.70
2019-02-23T13:05:40.383Z,6.70
2019-02-23T13:09:46.120Z,6.50
2019-02-23T13:14:03.443Z,6.50
2019-02-23T13:18:22.935Z,6.60
2019-02-23T13:22:36.780Z,6.70
2019-02-23T13:27:01.848Z,6.60
2019-02-23T13:31:15.891Z,6.70
2019-02-23T13:35:39.207Z,6.70
2019-02-23T13:40:02.716Z,6.50
2019-02-23T13:44:22.966Z,6.60
2019-02-23T13:48:45.005Z,6.50
2019-02-23T13:53:02.054Z,6.30
2019-02-23T13:57:12.923Z,6.30
2019-02-23T14:01:24.003Z,6.30
2019-02-23T14:05:44.109Z,6.30
2019-02-23T14:09:52.185Z,6.20
2019-02-23T14:14:30.045Z,6.00
2019-02-23T14:18:47.095Z,5.80
2019-02-23T14:22:58.321Z,5.50
2019-02-23T14:27:09.490Z,5.50
2019-02-23T14:31:41.184Z,5.30
2019-02-23T14:35:49.427Z,5.30
2019-02-23T14:40:06.408Z,5.20
2019-02-23T14:44:20.223Z,5.10
2019-02-23T14:48:34.277Z,5.00
2019-02-23T14:52:53.991Z,4.90
2019-02-23T14:57:26.006Z,4.80
2019-02-23T15:01:51.247Z,4.80
2019-02-23T15:06:31.288Z,4.80
2019-02-23T15:10:56.015Z,4.80
2019-02-23T15:15:10.200Z,4.60
2019-02-23T15:19:21.131Z,4.40
2019-02-23T15:23:44.171Z,4.30
2019-02-23T15:28:26.754Z,4.20
2019-02-23T15:32:59.392Z,4.10
2019-02-23T15:37:13.087Z,4.00
2019-02-23T15:41:50.027Z,3.80
2019-02-23T15:46:28.067Z,3.80
2019-02-23T15:50:33.030Z,3.70
2019-02-23T15:54:38.024Z,3.60
2019-02-23T15:58:43.040Z,3.50
2019-02-23T16:02:48.091Z,3.40
2019-02-23T16:06:53.167Z,3.20
2019-02-23T16:10:58.223Z,3.10
2019-02-23T16:15:03.295Z,2.90
2019-02-23T16:19:08.747Z,2.80
2019-02-23T16:23:13.756Z,2.60
2019-02-23T16:27:18.765Z,2.50
2019-02-23T16:31:23.779Z,2.50
2019-02-23T16:35:28.777Z,2.30
2019-02-23T16:39:33.749Z,2.00
2019-02-23T16:43:38.759Z,1.70
2019-02-23T16:47:43.756Z,1.40
2019-02-23T16:51:48.775Z,1.20
2019-02-23T16:55:53.766Z,1.10
2019-02-23T16:59:58.756Z,1.00
2019-02-23T17:04:03.759Z,0.90
2019-02-23T17:08:08.754Z,0.80
2019-02-23T17:12:15.495Z,0.70
2019-02-23T17:16:20.490Z,0.50
2019-02-23T17:20:25.731Z,0.30
2019-02-23T17:24:30.771Z,0.20
2019-02-23T17:28:35.771Z,0.00
2019-02-23T17:32:41.039Z,-0.20
2019-02-23T17:36:46.074Z,-0.30
2019-02-23T17:40:51.075Z,-0.30
2019-02-23T17:44:56.067Z,-0.40
2019-02-23T17:49:01.072Z,-0.50
2019-02-23T17:53:06.187Z,-0.60
2019-02-23T17:57:12.201Z,-0.70
2019-02-23T18:01:17.395Z,-0.80
2019-02-23T18:05:22.399Z,-0.90
2019-02-23T18:09:27.415Z,-1.00
2019-02-23T18:13:34.167Z,-1.10
2019-02-23T18:17:39.179Z,-1.10
2019-02-23T18:21:46.250Z,-1.10
2019-02-23T18:25:51.287Z,-1.10
2019-02-23T18:29:56.356Z,-1.20
2019-02-23T18:34:02.572Z,-1.30
2019-02-23T18:38:07.630Z,-1.40
2019-02-23T18:42:12.684Z,-1.50
2019-02-23T18:46:18.697Z,-1.60
2019-02-23T18:50:24.842Z,-1.70
2019-02-23T18:54:29.912Z,-1.60
2019-02-23T18:58:35.109Z,-1.50
2019-02-23T19:02:40.423Z,-1.50
2019-02-23T19:06:45.785Z,-1.50
2019-02-23T19:10:50.799Z,-1.50
2019-02-23T19:14:55.842Z,-1.60
2019-02-23T19:19:00.877Z,-1.70
2019-02-23T19:23:07.127Z,-1.70
2019-02-23T19:27:12.169Z,-1.80
2019-02-23T19:31:17.221Z,-1.80
2019-02-23T19:35:22.505Z,-1.70
2019-02-23T19:39:27.847Z,-1.80
2019-02-23T19:43:33.173Z,-1.70
2019-02-23T19:47:39.591Z,-1.80
2019-02-23T19:51:44.579Z,-1.80
2019-02-23T19:55:49.588Z,-1.90
2019-02-23T19:59:54.595Z,-1.90
2019-02-23T20:03:59.675Z,-2.00
2019-02-23T20:08:04.928Z,-2.10
2019-02-23T20:12:09.935Z,-2.10
2019-02-23T20:16:14.919Z,-2.20
2019-02-23T20:20:19.917Z,-2.20
2019-02-23T20:24:25.128Z,-2.30
2019-02-23T20:28:31.108Z,-2.30
2019-02-23T20:32:36.575Z,-2.30
2019-02-23T20:36:41.561Z,-2.20
2019-02-23T20:40:46.606Z,-2.20
2019-02-23T20:44:51.634Z,-2.30
2019-02-23T20:48:56.626Z,-2.30
2019-02-23T20:53:01.638Z,-2.30
2019-02-23T20:57:13.689Z,-2.40
2019-02-23T21:01:13.252Z,-2.50
2019-02-23T21:05:20.123Z,-2.50
2019-02-23T21:09:26.439Z,-2.60
2019-02-23T21:13:31.531Z,-2.60
2019-02-23T21:17:37.613Z,-2.60
2019-02-23T21:21:42.767Z,-2.60
2019-02-23T21:25:47.835Z,-2.70
2019-02-23T21:29:53.821Z,-2.70
2019-02-23T21:33:59.084Z,-2.80
2019-02-23T21:38:04.102Z,-2.80
2019-02-23T21:42:09.098Z,-2.80
2019-02-23T21:46:14.118Z,-2.80
2019-02-23T21:50:19.137Z,-2.90
2019-02-23T21:54:24.216Z,-2.90
2019-02-23T21:58:29.328Z,-2.90
2019-02-23T22:02:34.329Z,-2.90
2019-02-23T22:06:39.408Z,-2.90
2019-02-23T22:10:44.423Z,-2.90
2019-02-23T22:14:49.438Z,-2.90
2019-02-23T22:18:54.441Z,-2.90
2019-02-23T22:22:59.436Z,-2.90
2019-02-23T22:27:04.451Z,-2.90
2019-02-23T22:31:09.469Z,-2.90
2019-02-23T22:35:14.528Z,-2.90
2019-02-23T22:39:19.595Z,-2.90
2019-02-23T22:43:24.603Z,-2.90
2019-02-23T22:47:29.595Z,-2.90
2019-02-23T22:51:34.611Z,-2.90
2019-02-23T22:55:39.640Z,-3.00
2019-02-23T22:59:44.655Z,-3.00
2019-02-23T23:03:49.669Z,-3.10
2019-02-23T23:07:55.407Z,-3.20
2019-02-23T23:12:00.448Z,-3.20
2019-02-23T23:16:05.459Z,-3.20
2019-02-23T23:20:10.615Z,-3.30
2019-02-23T23:24:15.623Z,-3.30
2019-02-23T23:28:20.615Z,-3.30
2019-02-23T23:32:26.706Z,-3.30
2019-02-23T23:36:31.718Z,-3.30
2019-02-23T23:40:36.727Z,-3.40
2019-02-23T23:44:41.745Z,-3.40
2019-02-23T23:48:46.757Z,-3.40
2019-02-23T23:52:51.775Z,-3.40
2019-02-23T23:56:56.807Z,-3.40
